Queen Of Cowichan — CZ4990 — position and weather

sailwx.info

Track history (hours):
 
Tides and Currents Weather Stations Pressure Air Temp Water Temp Dewpoint Dewpoint Depression Visibility Wind Speed Wind Dir Waves Ship Positions

Queen Of Cowichan

Last reported at 2018-Jul-21 22:47 UTC. Time now 2018-Jul-22 06:23 UTC.
Position N 49°18' W 123°33'.

Length 139 m.

Type: Passenger vessel. MMSI: 316001251.

Date/timePositionNaut miles runAvg speedWind from/ knotsBaromVisibWave heightAir tempDewpointWater temp
2018-Jul-21 22:47N 49°18' W 123°33'4 0.2
2018-Jul-21 02:58N 49°19' W 123°26'1 0.9
2018-Jul-21 01:25N 49°18' W 123°24'5 1.8
2018-Jul-20 22:39N 49°18' W 123°32'319.8
2018-Jul-20 22:30N 49°18' W 123°27'5 2.9
2018-Jul-20 20:48N 49°20' W 123°20'7 2.2
2018-Jul-20 17:42N 49°17' W 123°30'519.6
2018-Jul-20 17:26N 49°19' W 123°22'1 0.5
2018-Jul-20 16:03N 49°19' W 123°21'219.8
2018-Jul-20 15:57N 49°19' W 123°24'7 0.6
2018-Jul-20 03:22N 49°17' W 123°35'719.8
2018-Jul-20 03:00N 49°19' W 123°24'3 2.2
2018-Jul-20 01:35N 49°21' W 123°20'419.5
2018-Jul-20 01:24N 49°19' W 123°25'11 4.2
2018-Jul-19 22:48N 49°17' W 123°41'719.8
2018-Jul-19 22:28N 49°18' W 123°31'7 3.8
2018-Jul-19 20:40N 49°19' W 123°21'16 6.4
2018-Jul-19 18:15N 49°16' W 123°44'919.9
2018-Jul-19 17:47N 49°18' W 123°31'619.9
2018-Jul-19 17:30N 49°19' W 123°22'2 1.2
2018-Jul-19 16:10N 49°20' W 123°20'418.7
2018-Jul-19 15:57N 49°18' W 123°25'10 0.8
2018-Jul-19 03:06N 49°16' W 123°40'619.6
2018-Jul-19 02:49N 49°18' W 123°32'7 1.7
2018-Jul-18 22:47N 49°16' W 123°42'819.1
2018-Jul-18 22:21N 49°19' W 123°30'7 3.9
2018-Jul-18 20:38N 49°20' W 123°20'319.0
2018-Jul-18 20:30N 49°19' W 123°24'6 0.3
2018-Jul-18 02:50N 49°18' W 123°32'16 6.0
2018-Jul-18 00:10N 49°13' W 123°55'9 6.5
2018-Jul-17 22:52N 49°16' W 123°44'919.8
2018-Jul-17 22:24N 49°19' W 123°30'3 1.7
2018-Jul-17 20:26N 49°18' W 123°26'7 0.4
2018-Jul-17 03:22N 49°17' W 123°36'720.3
2018-Jul-17 03:00N 49°19' W 123°25'7 5.7
2018-Jul-17 01:44N 49°23' W 123°17'517.7
2018-Jul-17 01:27N 49°19' W 123°22'15 6.2
2018-Jul-16 22:59N 49°16' W 123°45'1120.0
2018-Jul-16 22:25N 49°18' W 123°27'4 2.1
2018-Jul-16 20:41N 49°19' W 123°22'520.0
2018-Jul-16 20:25N 49°17' W 123°30'5 2.0
2018-Jul-16 17:57N 49°18' W 123°37'920.0
2018-Jul-16 17:29N 49°19' W 123°23'2 1.2
2018-Jul-16 16:06N 49°19' W 123°21'219.4
2018-Jul-16 16:00N 49°19' W 123°23'1020.2
2018-Jul-16 15:30N 49°16' W 123°38'1020.4
2018-Jul-16 14:59N 49°13' W 123°54'0 0.0
2018-Jul-16 08:23N 49°13' W 123°54'819.6
2018-Jul-16 08:00N 49°16' W 123°43'1020.1
2018-Jul-16 07:30N 49°19' W 123°28'4 2.9
2018-Jul-16 06:08N 49°19' W 123°22'320.1
2018-Jul-16 06:00N 49°18' W 123°26'1120.7
2018-Jul-16 05:28N 49°15' W 123°42'2 0.9
2018-Jul-16 03:43N 49°16' W 123°44'519.6
2018-Jul-16 03:28N 49°17' W 123°37'12 6.4
2018-Jul-16 01:33N 49°21' W 123°19'120.1
2018-Jul-16 01:30N 49°20' W 123°20'1019.8
2018-Jul-16 01:00N 49°17' W 123°35'8 4.0
2018-Jul-15 23:00N 49°15' W 123°47'1020.1
2018-Jul-15 22:29N 49°18' W 123°31'8 4.6
2018-Jul-15 20:41N 49°21' W 123°19'418.8
2018-Jul-15 20:28N 49°18' W 123°24'1220.5
2018-Jul-15 19:54N 49°15' W 123°42'1020.7
2018-Jul-15 19:25N 49°12' W 123°56'1 2.1
2018-Jul-15 18:54N 49°12' W 123°57'11 0.6
2018-Jul-14 22:44N 49°16' W 123°42'720.1
2018-Jul-14 22:24N 49°18' W 123°32'8 4.7
2018-Jul-14 20:45N 49°20' W 123°20'518.9
2018-Jul-14 20:29N 49°18' W 123°27'1220.6
2018-Jul-14 19:55N 49°15' W 123°44'9 7.4
2018-Jul-14 18:41N 49°12' W 123°57'316.6
2018-Jul-14 18:30N 49°14' W 123°53'1019.0
2018-Jul-14 17:58N 49°16' W 123°38'919.6
2018-Jul-14 17:29N 49°19' W 123°24'7 6.3
2018-Jul-14 16:23N 49°23' W 123°16'616.3
2018-Jul-14 16:00N 49°19' W 123°23'1019.3
2018-Jul-14 15:30N 49°16' W 123°38'1020.1
2018-Jul-14 15:00N 49°13' W 123°53'2 0.2
2018-Jul-14 04:07N 49°13' W 123°55'318.7
2018-Jul-14 03:57N 49°14' W 123°51'1019.4
2018-Jul-14 03:25N 49°19' W 123°37'1019.5
2018-Jul-14 02:53N 49°25' W 123°24'5 4.6
2018-Jul-14 01:46N 49°23' W 123°16'415.6
2018-Jul-14 01:29N 49°20' W 123°21'19 8.2
2018-Jul-13 23:08N 49°15' W 123°50'619.0
2018-Jul-13 22:50N 49°16' W 123°41'919.8
2018-Jul-13 22:23N 49°18' W 123°28'817.9
2018-Jul-13 21:55N 49°23' W 123°18'1 1.1
2018-Jul-13 21:01N 49°23' W 123°16'111.6
2018-Jul-13 20:57N 49°23' W 123°18'818.7
2018-Jul-13 20:30N 49°18' W 123°28'10 4.1
2018-Jul-13 18:08N 49°16' W 123°42'319.4
2018-Jul-13 17:58N 49°17' W 123°38'919.5
2018-Jul-13 17:30N 49°19' W 123°24'5 4.5
2018-Jul-13 16:19N 49°23' W 123°18'618.7
2018-Jul-13 15:59N 49°18' W 123°25'1019.7
2018-Jul-13 15:30N 49°15' W 123°39'3 0.3
2018-Jul-13 03:35N 49°16' W 123°44'220.0
2018-Jul-13 03:30N 49°16' W 123°41'1119.7
2018-Jul-13 02:55N 49°19' W 123°24'3 2.2
2018-Jul-13 01:32N 49°20' W 123°20'320.2
2018-Jul-13 01:22N 49°19' W 123°25'1020.4
2018-Jul-13 00:52N 49°15' W 123°40'3 1.5
2018-Jul-12 22:57N 49°15' W 123°44'1119.9
2018-Jul-12 22:24N 49°19' W 123°28'4 2.4
2018-Jul-12 20:41N 49°19' W 123°22'420.0
2018-Jul-12 20:29N 49°18' W 123°28'15 7.5
2018-Jul-12 18:27N 49°14' W 123°51'1519.7
2018-Jul-12 17:42N 49°18' W 123°29'519.9
2018-Jul-12 17:27N 49°19' W 123°22'1 1.1
2018-Jul-12 16:09N 49°20' W 123°20'318.3
2018-Jul-12 15:58N 49°18' W 123°24'919.3
2018-Jul-12 15:29N 49°15' W 123°38'4 0.3
2018-Jul-12 03:15N 49°16' W 123°44'619.7
2018-Jul-12 02:57N 49°18' W 123°35'919.9
2018-Jul-12 02:30N 49°20' W 123°21'5 5.5
2018-Jul-12 01:40N 49°23' W 123°16'212.5
2018-Jul-12 01:30N 49°22' W 123°19'  
Track history (hours):
 
Tides and Currents Weather Stations Pressure Air Temp Water Temp Dewpoint Dewpoint Depression Visibility Wind Speed Wind Dir Waves Ship Positions

Queen Of Cowichan

Last reported at 2018-Jul-21 22:47 UTC. Time now 2018-Jul-22 06:23 UTC.
Position N 49°18' W 123°33'.

Length 139 m.

Type: Passenger vessel. MMSI: 316001251.

Date/timePositionNaut miles runAvg speedWind from/ knotsBaromVisibWave heightAir tempDewpointWater temp
2018-Jul-21 22:47N 49°18' W 123°33'4 0.2
2018-Jul-21 02:58N 49°19' W 123°26'1 0.9
2018-Jul-21 01:25N 49°18' W 123°24'5 1.8
2018-Jul-20 22:39N 49°18' W 123°32'319.8
2018-Jul-20 22:30N 49°18' W 123°27'5 2.9
2018-Jul-20 20:48N 49°20' W 123°20'7 2.2
2018-Jul-20 17:42N 49°17' W 123°30'519.6
2018-Jul-20 17:26N 49°19' W 123°22'1 0.5
2018-Jul-20 16:03N 49°19' W 123°21'219.8
2018-Jul-20 15:57N 49°19' W 123°24'7 0.6
2018-Jul-20 03:22N 49°17' W 123°35'719.8
2018-Jul-20 03:00N 49°19' W 123°24'3 2.2
2018-Jul-20 01:35N 49°21' W 123°20'419.5
2018-Jul-20 01:24N 49°19' W 123°25'11 4.2
2018-Jul-19 22:48N 49°17' W 123°41'719.8
2018-Jul-19 22:28N 49°18' W 123°31'7 3.8
2018-Jul-19 20:40N 49°19' W 123°21'16 6.4
2018-Jul-19 18:15N 49°16' W 123°44'919.9
2018-Jul-19 17:47N 49°18' W 123°31'619.9
2018-Jul-19 17:30N 49°19' W 123°22'2 1.2
2018-Jul-19 16:10N 49°20' W 123°20'418.7
2018-Jul-19 15:57N 49°18' W 123°25'10 0.8
2018-Jul-19 03:06N 49°16' W 123°40'619.6
2018-Jul-19 02:49N 49°18' W 123°32'7 1.7
2018-Jul-18 22:47N 49°16' W 123°42'819.1
2018-Jul-18 22:21N 49°19' W 123°30'7 3.9
2018-Jul-18 20:38N 49°20' W 123°20'319.0
2018-Jul-18 20:30N 49°19' W 123°24'6 0.3
2018-Jul-18 02:50N 49°18' W 123°32'16 6.0
2018-Jul-18 00:10N 49°13' W 123°55'9 6.5
2018-Jul-17 22:52N 49°16' W 123°44'919.8
2018-Jul-17 22:24N 49°19' W 123°30'3 1.7
2018-Jul-17 20:26N 49°18' W 123°26'7 0.4
2018-Jul-17 03:22N 49°17' W 123°36'720.3
2018-Jul-17 03:00N 49°19' W 123°25'7 5.7
2018-Jul-17 01:44N 49°23' W 123°17'517.7
2018-Jul-17 01:27N 49°19' W 123°22'15 6.2
2018-Jul-16 22:59N 49°16' W 123°45'1120.0
2018-Jul-16 22:25N 49°18' W 123°27'4 2.1
2018-Jul-16 20:41N 49°19' W 123°22'520.0
2018-Jul-16 20:25N 49°17' W 123°30'5 2.0
2018-Jul-16 17:57N 49°18' W 123°37'920.0
2018-Jul-16 17:29N 49°19' W 123°23'2 1.2
2018-Jul-16 16:06N 49°19' W 123°21'219.4
2018-Jul-16 16:00N 49°19' W 123°23'1020.2
2018-Jul-16 15:30N 49°16' W 123°38'1020.4
2018-Jul-16 14:59N 49°13' W 123°54'0 0.0
2018-Jul-16 08:23N 49°13' W 123°54'819.6
2018-Jul-16 08:00N 49°16' W 123°43'1020.1
2018-Jul-16 07:30N 49°19' W 123°28'4 2.9
2018-Jul-16 06:08N 49°19' W 123°22'320.1
2018-Jul-16 06:00N 49°18' W 123°26'1120.7
2018-Jul-16 05:28N 49°15' W 123°42'2 0.9
2018-Jul-16 03:43N 49°16' W 123°44'519.6
2018-Jul-16 03:28N 49°17' W 123°37'12 6.4
2018-Jul-16 01:33N 49°21' W 123°19'120.1
2018-Jul-16 01:30N 49°20' W 123°20'1019.8
2018-Jul-16 01:00N 49°17' W 123°35'8 4.0
2018-Jul-15 23:00N 49°15' W 123°47'1020.1
2018-Jul-15 22:29N 49°18' W 123°31'8 4.6
2018-Jul-15 20:41N 49°21' W 123°19'418.8
2018-Jul-15 20:28N 49°18' W 123°24'1220.5
2018-Jul-15 19:54N 49°15' W 123°42'1020.7
2018-Jul-15 19:25N 49°12' W 123°56'1 2.1
2018-Jul-15 18:54N 49°12' W 123°57'11 0.6
2018-Jul-14 22:44N 49°16' W 123°42'720.1
2018-Jul-14 22:24N 49°18' W 123°32'8 4.7
2018-Jul-14 20:45N 49°20' W 123°20'518.9
2018-Jul-14 20:29N 49°18' W 123°27'1220.6
2018-Jul-14 19:55N 49°15' W 123°44'9 7.4
2018-Jul-14 18:41N 49°12' W 123°57'316.6
2018-Jul-14 18:30N 49°14' W 123°53'1019.0
2018-Jul-14 17:58N 49°16' W 123°38'919.6
2018-Jul-14 17:29N 49°19' W 123°24'7 6.3
2018-Jul-14 16:23N 49°23' W 123°16'616.3
2018-Jul-14 16:00N 49°19' W 123°23'1019.3
2018-Jul-14 15:30N 49°16' W 123°38'1020.1
2018-Jul-14 15:00N 49°13' W 123°53'2 0.2
2018-Jul-14 04:07N 49°13' W 123°55'318.7
2018-Jul-14 03:57N 49°14' W 123°51'1019.4
2018-Jul-14 03:25N 49°19' W 123°37'1019.5
2018-Jul-14 02:53N 49°25' W 123°24'5 4.6
2018-Jul-14 01:46N 49°23' W 123°16'415.6
2018-Jul-14 01:29N 49°20' W 123°21'19 8.2
2018-Jul-13 23:08N 49°15' W 123°50'619.0
2018-Jul-13 22:50N 49°16' W 123°41'919.8
2018-Jul-13 22:23N 49°18' W 123°28'817.9
2018-Jul-13 21:55N 49°23' W 123°18'1 1.1
2018-Jul-13 21:01N 49°23' W 123°16'111.6
2018-Jul-13 20:57N 49°23' W 123°18'818.7
2018-Jul-13 20:30N 49°18' W 123°28'10 4.1
2018-Jul-13 18:08N 49°16' W 123°42'319.4
2018-Jul-13 17:58N 49°17' W 123°38'919.5
2018-Jul-13 17:30N 49°19' W 123°24'5 4.5
2018-Jul-13 16:19N 49°23' W 123°18'618.7
2018-Jul-13 15:59N 49°18' W 123°25'1019.7
2018-Jul-13 15:30N 49°15' W 123°39'3 0.3
2018-Jul-13 03:35N 49°16' W 123°44'220.0
2018-Jul-13 03:30N 49°16' W 123°41'1119.7
2018-Jul-13 02:55N 49°19' W 123°24'3 2.2
2018-Jul-13 01:32N 49°20' W 123°20'320.2
2018-Jul-13 01:22N 49°19' W 123°25'1020.4
2018-Jul-13 00:52N 49°15' W 123°40'3 1.5
2018-Jul-12 22:57N 49°15' W 123°44'1119.9
2018-Jul-12 22:24N 49°19' W 123°28'4 2.4
2018-Jul-12 20:41N 49°19' W 123°22'420.0
2018-Jul-12 20:29N 49°18' W 123°28'15 7.5
2018-Jul-12 18:27N 49°14' W 123°51'1519.7
2018-Jul-12 17:42N 49°18' W 123°29'519.9
2018-Jul-12 17:27N 49°19' W 123°22'1 1.1
2018-Jul-12 16:09N 49°20' W 123°20'318.3
2018-Jul-12 15:58N 49°18' W 123°24'919.3
2018-Jul-12 15:29N 49°15' W 123°38'4 0.3
2018-Jul-12 03:15N 49°16' W 123°44'619.7
2018-Jul-12 02:57N 49°18' W 123°35'919.9
2018-Jul-12 02:30N 49°20' W 123°21'5 5.5
2018-Jul-12 01:40N 49°23' W 123°16'212.5
2018-Jul-12 01:30N 49°22' W 123°19'  

Dump ship's entire track history